sensor_id;sensor_type;location;lat;lon;timestamp;pressure;altitude;pressure_sealevel;temperature;humidity
8039;BME280;4062;49.844;8.120;2023-11-19T00:00:01;99072.84;;;15.35;57.98
8039;BME280;4062;49.844;8.120;2023-11-19T00:02:09;99071.94;;;15.36;57.97
8039;BME280;4062;49.844;8.120;2023-11-19T00:04:10;99071.03;;;15.35;57.88
8039;BME280;4062;49.844;8.120;2023-11-19T00:06:11;99071.94;;;15.36;57.95
8039;BME280;4062;49.844;8.120;2023-11-19T00:08:12;99077.25;;;15.36;57.90
8039;BME280;4062;49.844;8.120;2023-11-19T00:10:15;99083.41;;;15.36;58.06
8039;BME280;4062;49.844;8.120;2023-11-19T00:12:19;99094.91;;;15.37;57.97
8039;BME280;4062;49.844;8.120;2023-11-19T00:14:20;99094.91;;;15.37;57.90
8039;BME280;4062;49.844;8.120;2023-11-19T00:16:22;99107.47;;;15.35;57.84
8039;BME280;4062;49.844;8.120;2023-11-19T00:18:23;99105.66;;;15.35;57.96
8039;BME280;4062;49.844;8.120;2023-11-19T00:20:24;99102.06;;;15.36;58.02
8039;BME280;4062;49.844;8.120;2023-11-19T00:22:25;99095.88;;;15.36;57.96
8039;BME280;4062;49.844;8.120;2023-11-19T00:24:27;99083.41;;;15.36;58.04
8039;BME280;4062;49.844;8.120;2023-11-19T00:26:29;99081.69;;;15.35;58.02
8039;BME280;4062;49.844;8.120;2023-11-19T00:28:32;99079.03;;;15.35;57.95
8039;BME280;4062;49.844;8.120;2023-11-19T00:30:34;99075.53;;;15.35;58.03
8039;BME280;4062;49.844;8.120;2023-11-19T00:32:37;99078.19;;;15.35;57.96
8039;BME280;4062;49.844;8.120;2023-11-19T00:34:40;99075.53;;;15.35;57.99
8039;BME280;4062;49.844;8.120;2023-11-19T00:36:42;99071.03;;;15.35;57.84
8039;BME280;4062;49.844;8.120;2023-11-19T00:38:43;99072.84;;;15.35;57.61
8039;BME280;4062;49.844;8.120;2023-11-19T00:40:44;99069.25;;;15.36;58.02
8039;BME280;4062;49.844;8.120;2023-11-19T00:42:45;99079.03;;;15.35;58.00
8039;BME280;4062;49.844;8.120;2023-11-19T00:44:47;99079.91;;;15.36;58.08
8039;BME280;4062;49.844;8.120;2023-11-19T00:46:48;99078.09;;;15.36;58.00
8039;BME280;4062;49.844;8.120;2023-11-19T00:48:50;99073.69;;;15.35;58.05
8039;BME280;4062;49.844;8.120;2023-11-19T00:50:51;99071.03;;;15.35;57.88
8039;BME280;4062;49.844;8.120;2023-11-19T00:52:52;99070.09;;;15.36;58.03
8039;BME280;4062;49.844;8.120;2023-11-19T00:54:54;99059.53;;;15.35;57.97
8039;BME280;4062;49.844;8.120;2023-11-19T00:56:56;99049.75;;;15.35;58.00
8039;BME280;4062;49.844;8.120;2023-11-19T00:58:57;99053.28;;;15.36;58.00
8039;BME280;4062;49.844;8.120;2023-11-19T01:01:01;99047.09;;;15.35;57.92
8039;BME280;4062;49.844;8.120;2023-11-19T01:03:02;99041.75;;;15.35;57.84
8039;BME280;4062;49.844;8.120;2023-11-19T01:05:04;99053.28;;;15.36;58.04
8039;BME280;4062;49.844;8.120;2023-11-19T01:07:05;99051.56;;;15.35;57.89
8039;BME280;4062;49.844;8.120;2023-11-19T01:09:07;99047.97;;;15.36;57.90
8039;BME280;4062;49.844;8.120;2023-11-19T01:11:19;99047.97;;;15.36;57.79
8039;BME280;4062;49.844;8.120;2023-11-19T01:13:21;99046.25;;;15.35;57.97
8039;BME280;4062;49.844;8.120;2023-11-19T01:15:23;99055.06;;;15.35;58.07
8039;BME280;4062;49.844;8.120;2023-11-19T01:17:25;99055.94;;;15.36;58.01
8039;BME280;4062;49.844;8.120;2023-11-19T01:19:26;99055.06;;;15.35;58.08
8039;BME280;4062;49.844;8.120;2023-11-19T01:21:29;99030.25;;;15.35;58.21
8039;BME280;4062;49.844;8.120;2023-11-19T01:23:31;99016.97;;;15.35;57.92
8039;BME280;4062;49.844;8.120;2023-11-19T01:25:32;99032.94;;;15.35;57.94
8039;BME280;4062;49.844;8.120;2023-11-19T01:27:33;99039.97;;;15.36;57.94
8039;BME280;4062;49.844;8.120;2023-11-19T01:29:35;99033.78;;;15.35;58.01
8039;BME280;4062;49.844;8.120;2023-11-19T01:31:39;99022.28;;;15.35;58.01
8039;BME280;4062;49.844;8.120;2023-11-19T01:33:41;99016.03;;;15.36;57.89
8039;BME280;4062;49.844;8.120;2023-11-19T01:35:43;99028.44;;;15.35;58.08
8039;BME280;4062;49.844;8.120;2023-11-19T01:37:44;99046.25;;;15.35;57.87
8039;BME280;4062;49.844;8.120;2023-11-19T01:39:45;99054.22;;;15.35;57.91
8039;BME280;4062;49.844;8.120;2023-11-19T01:41:46;99054.22;;;15.35;58.07
8039;BME280;4062;49.844;8.120;2023-11-19T01:43:48;99042.66;;;15.36;57.99
8039;BME280;4062;49.844;8.120;2023-11-19T01:45:49;99034.66;;;15.36;57.91
8039;BME280;4062;49.844;8.120;2023-11-19T01:47:51;99024.94;;;15.35;58.07
8039;BME280;4062;49.844;8.120;2023-11-19T01:49:53;99016.06;;;15.34;58.05
8039;BME280;4062;49.844;8.120;2023-11-19T01:51:54;99021.34;;;15.36;58.00
8039;BME280;4062;49.844;8.120;2023-11-19T01:53:57;99013.38;;;15.36;57.89
8039;BME280;4062;49.844;8.120;2023-11-19T01:55:59;99005.38;;;15.36;58.22
8039;BME280;4062;49.844;8.120;2023-11-19T01:58:02;98990.34;;;15.35;57.96
8039;BME280;4062;49.844;8.120;2023-11-19T02:00:04;98985.00;;;15.35;57.92
8039;BME280;4062;49.844;8.120;2023-11-19T02:02:15;98985.88;;;15.35;57.88
8039;BME280;4062;49.844;8.120;2023-11-19T02:04:16;98977.97;;;15.34;57.93
8039;BME280;4062;49.844;8.120;2023-11-19T02:06:17;98981.47;;;15.34;58.02
8039;BME280;4062;49.844;8.120;2023-11-19T02:08:19;98985.88;;;15.35;58.03
8039;BME280;4062;49.844;8.120;2023-11-19T02:10:21;98984.13;;;15.34;57.84
8039;BME280;4062;49.844;8.120;2023-11-19T02:12:26;98985.88;;;15.35;57.88
8039;BME280;4062;49.844;8.120;2023-11-19T02:14:29;98979.69;;;15.35;58.03
8039;BME280;4062;49.844;8.120;2023-11-19T02:16:32;98986.81;;;15.34;57.98
8039;BME280;4062;49.844;8.120;2023-11-19T02:18:33;98979.69;;;15.35;57.99
8039;BME280;4062;49.844;8.120;2023-11-19T02:20:34;98984.13;;;15.34;57.96
8039;BME280;4062;49.844;8.120;2023-11-19T02:22:35;98985.88;;;15.35;57.88
8039;BME280;4062;49.844;8.120;2023-11-19T02:24:37;98980.63;;;15.34;57.71
8039;BME280;4062;49.844;8.120;2023-11-19T02:26:52;98982.34;;;15.35;57.97
8039;BME280;4062;49.844;8.120;2023-11-19T02:28:57;98985.00;;;15.35;57.92
8039;BME280;4062;49.844;8.120;2023-11-19T02:30:59;98976.16;;;15.34;58.05
8039;BME280;4062;49.844;8.120;2023-11-19T02:33:00;98978.81;;;15.34;57.99
8039;BME280;4062;49.844;8.120;2023-11-19T02:35:06;98961.06;;;15.35;57.87
8039;BME280;4062;49.844;8.120;2023-11-19T02:37:09;98969.91;;;15.35;58.00
8039;BME280;4062;49.844;8.120;2023-11-19T02:39:11;98966.38;;;15.35;58.08
8039;BME280;4062;49.844;8.120;2023-11-19T02:41:14;98969.03;;;15.35;57.92
8039;BME280;4062;49.844;8.120;2023-11-19T02:43:16;98955.75;;;15.35;58.02
8039;BME280;4062;49.844;8.120;2023-11-19T02:45:17;98947.75;;;15.35;57.97
8039;BME280;4062;49.844;8.120;2023-11-19T02:47:18;98943.38;;;15.34;58.02
8039;BME280;4062;49.844;8.120;2023-11-19T02:49:22;98944.22;;;15.34;57.90
8039;BME280;4062;49.844;8.120;2023-11-19T02:51:25;98950.41;;;15.35;57.95
8039;BME280;4062;49.844;8.120;2023-11-19T02:53:26;98947.75;;;15.35;58.03
8039;BME280;4062;49.844;8.120;2023-11-19T02:55:30;98947.75;;;15.35;57.99
8039;BME280;4062;49.844;8.120;2023-11-19T02:57:37;98950.41;;;15.35;57.99
8039;BME280;4062;49.844;8.120;2023-11-19T02:59:39;98946.88;;;15.34;57.99
8039;BME280;4062;49.844;8.120;2023-11-19T03:01:42;98961.06;;;15.35;57.97
8039;BME280;4062;49.844;8.120;2023-11-19T03:03:50;98956.66;;;15.34;58.02
8039;BME280;4062;49.844;8.120;2023-11-19T03:05:58;98949.53;;;15.34;57.89
8039;BME280;4062;49.844;8.120;2023-11-19T03:07:59;98946.03;;;15.34;57.71
8039;BME280;4062;49.844;8.120;2023-11-19T03:10:00;98939.78;;;15.35;57.94
8039;BME280;4062;49.844;8.120;2023-11-19T03:12:02;98941.56;;;15.34;57.91
8039;BME280;4062;49.844;8.120;2023-11-19T03:14:04;98941.56;;;15.34;58.02
8039;BME280;4062;49.844;8.120;2023-11-19T03:16:05;98941.56;;;15.34;58.01
8039;BME280;4062;49.844;8.120;2023-11-19T03:18:08;98933.56;;;15.34;57.92
8039;BME280;4062;49.844;8.120;2023-11-19T03:20:11;98936.22;;;15.34;57.96
8039;BME280;4062;49.844;8.120;2023-11-19T03:22:16;98928.25;;;15.34;57.99
8039;BME280;4062;49.844;8.120;2023-11-19T03:24:17;98930.06;;;15.34;57.83
8039;BME280;4062;49.844;8.120;2023-11-19T03:26:19;98929.19;;;15.33;58.05
8039;BME280;4062;49.844;8.120;2023-11-19T03:28:20;98929.13;;;15.35;57.92
8039;BME280;4062;49.844;8.120;2023-11-19T03:30:21;98930.91;;;15.34;58.07
8039;BME280;4062;49.844;8.120;2023-11-19T03:32:23;98924.72;;;15.34;57.91
8039;BME280;4062;49.844;8.120;2023-11-19T03:34:24;98923.84;;;15.33;57.86
8039;BME280;4062;49.844;8.120;2023-11-19T03:36:31;98919.41;;;15.34;58.11
8039;BME280;4062;49.844;8.120;2023-11-19T03:38:33;98924.72;;;15.34;58.04
8039;BME280;4062;49.844;8.120;2023-11-19T03:40:35;98924.72;;;15.34;57.83
8039;BME280;4062;49.844;8.120;2023-11-19T03:42:36;98927.41;;;15.34;58.03
8039;BME280;4062;49.844;8.120;2023-11-19T03:44:38;98931.78;;;15.35;58.02
8039;BME280;4062;49.844;8.120;2023-11-19T03:46:39;98924.72;;;15.34;57.98
8039;BME280;4062;49.844;8.120;2023-11-19T03:48:40;98924.72;;;15.34;58.03
8039;BME280;4062;49.844;8.120;2023-11-19T03:50:42;98926.50;;;15.33;57.93
8039;BME280;4062;49.844;8.120;2023-11-19T03:52:43;98928.25;;;15.34;57.97
8039;BME280;4062;49.844;8.120;2023-11-19T03:54:45;98922.91;;;15.34;57.94
8039;BME280;4062;49.844;8.120;2023-11-19T03:56:49;98927.41;;;15.34;57.99
8039;BME280;4062;49.844;8.120;2023-11-19T03:58:50;98930.06;;;15.34;58.00
8039;BME280;4062;49.844;8.120;2023-11-19T04:00:53;98929.13;;;15.35;58.04
8039;BME280;4062;49.844;8.120;2023-11-19T04:02:54;98930.91;;;15.34;57.97
8039;BME280;4062;49.844;8.120;2023-11-19T04:04:55;98931.78;;;15.35;57.95
8039;BME280;4062;49.844;8.120;2023-11-19T04:06:57;98926.50;;;15.33;57.96
8039;BME280;4062;49.844;8.120;2023-11-19T04:08:59;98926.50;;;15.33;58.13
8039;BME280;4062;49.844;8.120;2023-11-19T04:11:00;98921.13;;;15.35;57.95
8039;BME280;4062;49.844;8.120;2023-11-19T04:13:02;98905.22;;;15.33;57.96
8039;BME280;4062;49.844;8.120;2023-11-19T04:15:03;98898.13;;;15.34;57.98
8039;BME280;4062;49.844;8.120;2023-11-19T04:17:06;98900.78;;;15.34;58.16
8039;BME280;4062;49.844;8.120;2023-11-19T04:19:07;98899.06;;;15.32;57.90
8039;BME280;4062;49.844;8.120;2023-11-19T04:21:08;98904.28;;;15.34;57.87
8039;BME280;4062;49.844;8.120;2023-11-19T04:23:09;98898.13;;;15.34;57.96
8039;BME280;4062;49.844;8.120;2023-11-19T04:25:11;98910.53;;;15.33;58.08
8039;BME280;4062;49.844;8.120;2023-11-19T04:27:12;98907.88;;;15.33;57.95
8039;BME280;4062;49.844;8.120;2023-11-19T04:29:16;98908.75;;;15.34;57.88
8039;BME280;4062;49.844;8.120;2023-11-19T04:31:18;98916.75;;;15.34;58.05
8039;BME280;4062;49.844;8.120;2023-11-19T04:33:19;98913.16;;;15.35;58.01
8039;BME280;4062;49.844;8.120;2023-11-19T04:35:20;98907.81;;;15.35;58.09
8039;BME280;4062;49.844;8.120;2023-11-19T04:37:22;98901.72;;;15.32;57.97
8039;BME280;4062;49.844;8.120;2023-11-19T04:39:23;98891.91;;;15.33;57.97
8039;BME280;4062;49.844;8.120;2023-11-19T04:41:25;98902.56;;;15.33;57.92
8039;BME280;4062;49.844;8.120;2023-11-19T04:43:26;98902.56;;;15.33;58.08
8039;BME280;4062;49.844;8.120;2023-11-19T04:45:27;98900.88;;;15.32;58.11
8039;BME280;4062;49.844;8.120;2023-11-19T04:47:29;98907.88;;;15.33;58.04
8039;BME280;4062;49.844;8.120;2023-11-19T04:49:30;98910.53;;;15.33;58.06
8039;BME280;4062;49.844;8.120;2023-11-19T04:51:31;98904.38;;;15.32;58.02
8039;BME280;4062;49.844;8.120;2023-11-19T04:53:38;98907.88;;;15.33;58.03
8039;BME280;4062;49.844;8.120;2023-11-19T04:55:39;98899.06;;;15.32;58.07
8039;BME280;4062;49.844;8.120;2023-11-19T04:57:42;98900.88;;;15.32;57.99
8039;BME280;4062;49.844;8.120;2023-11-19T04:59:44;98891.06;;;15.32;57.93
8039;BME280;4062;49.844;8.120;2023-11-19T05:01:48;98892.78;;;15.34;58.03
8039;BME280;4062;49.844;8.120;2023-11-19T05:03:49;98897.25;;;15.33;58.03
8039;BME280;4062;49.844;8.120;2023-11-19T05:05:56;98902.56;;;15.33;58.04
8039;BME280;4062;49.844;8.120;2023-11-19T05:07:57;98899.06;;;15.32;57.95
8039;BME280;4062;49.844;8.120;2023-11-19T05:09:58;98908.75;;;15.34;57.95
8039;BME280;4062;49.844;8.120;2023-11-19T05:12:00;98905.22;;;15.33;57.95
8039;BME280;4062;49.844;8.120;2023-11-19T05:14:03;98903.53;;;15.32;57.87
8039;BME280;4062;49.844;8.120;2023-11-19T05:16:07;98907.88;;;15.33;58.10
8039;BME280;4062;49.844;8.120;2023-11-19T05:18:09;98907.88;;;15.33;57.88
8039;BME280;4062;49.844;8.120;2023-11-19T05:20:10;98903.53;;;15.32;57.93
8039;BME280;4062;49.844;8.120;2023-11-19T05:22:14;98905.22;;;15.33;57.98
8039;BME280;4062;49.844;8.120;2023-11-19T05:24:15;98906.09;;;15.34;58.02
8039;BME280;4062;49.844;8.120;2023-11-19T05:26:21;98901.72;;;15.32;57.87
8039;BME280;4062;49.844;8.120;2023-11-19T05:28:22;98901.72;;;15.32;57.92
8039;BME280;4062;49.844;8.120;2023-11-19T05:30:25;98905.22;;;15.33;58.03
8039;BME280;4062;49.844;8.120;2023-11-19T05:32:26;98901.72;;;15.32;58.30
8039;BME280;4062;49.844;8.120;2023-11-19T05:34:28;98891.06;;;15.32;58.07
8039;BME280;4062;49.844;8.120;2023-11-19T05:36:30;98886.59;;;15.33;57.99
8039;BME280;4062;49.844;8.120;2023-11-19T05:38:31;98886.59;;;15.33;58.12
8039;BME280;4062;49.844;8.120;2023-11-19T05:40:32;98888.41;;;15.32;58.03
8039;BME280;4062;49.844;8.120;2023-11-19T05:42:34;98887.56;;;15.32;57.92
8039;BME280;4062;49.844;8.120;2023-11-19T05:44:35;98883.94;;;15.33;58.06
8039;BME280;4062;49.844;8.120;2023-11-19T05:46:36;98884.91;;;15.32;58.12
8039;BME280;4062;49.844;8.120;2023-11-19T05:48:41;98878.59;;;15.33;58.02
8039;BME280;4062;49.844;8.120;2023-11-19T05:50:42;98883.94;;;15.33;58.02
8039;BME280;4062;49.844;8.120;2023-11-19T05:52:44;98891.06;;;15.32;57.98
8039;BME280;4062;49.844;8.120;2023-11-19T05:54:45;98905.22;;;15.33;58.08
8039;BME280;4062;49.844;8.120;2023-11-19T05:56:49;98903.44;;;15.34;57.99
8039;BME280;4062;49.844;8.120;2023-11-19T05:58:50;98899.91;;;15.33;58.15
8039;BME280;4062;49.844;8.120;2023-11-19T06:00:52;98891.91;;;15.33;57.99
8039;BME280;4062;49.844;8.120;2023-11-19T06:02:53;98885.75;;;15.32;57.98
8039;BME280;4062;49.844;8.120;2023-11-19T06:04:55;98884.91;;;15.32;57.98
8039;BME280;4062;49.844;8.120;2023-11-19T06:06:56;98891.06;;;15.32;58.10
8039;BME280;4062;49.844;8.120;2023-11-19T06:08:57;98907.03;;;15.32;58.04
8039;BME280;4062;49.844;8.120;2023-11-19T06:10:59;98900.88;;;15.32;58.06
8039;BME280;4062;49.844;8.120;2023-11-19T06:13:02;98907.03;;;15.32;58.06
8039;BME280;4062;49.844;8.120;2023-11-19T06:15:06;98901.72;;;15.32;57.98
8039;BME280;4062;49.844;8.120;2023-11-19T06:17:09;98914.19;;;15.32;58.12
8039;BME280;4062;49.844;8.120;2023-11-19T06:19:12;98916.84;;;15.32;57.98
8039;BME280;4062;49.844;8.120;2023-11-19T06:21:14;98915.88;;;15.33;58.10
8039;BME280;4062;49.844;8.120;2023-11-19T06:23:15;98912.38;;;15.32;58.07
8039;BME280;4062;49.844;8.120;2023-11-19T06:25:16;98909.69;;;15.32;58.04
8039;BME280;4062;49.844;8.120;2023-11-19T06:27:21;98910.53;;;15.33;57.96
8039;BME280;4062;49.844;8.120;2023-11-19T06:29:23;98909.69;;;15.32;57.99
8039;BME280;4062;49.844;8.120;2023-11-19T06:31:24;98918.53;;;15.33;58.04
8039;BME280;4062;49.844;8.120;2023-11-19T06:33:25;98915.88;;;15.33;57.88
8039;BME280;4062;49.844;8.120;2023-11-19T06:35:29;98923.00;;;15.32;58.02
8039;BME280;4062;49.844;8.120;2023-11-19T06:37:39;98923.94;;;15.31;58.01
8039;BME280;4062;49.844;8.120;2023-11-19T06:39:41;98929.19;;;15.33;58.08
8039;BME280;4062;49.844;8.120;2023-11-19T06:41:45;98929.25;;;15.31;58.00
8039;BME280;4062;49.844;8.120;2023-11-19T06:43:47;98932.81;;;15.32;57.97
8039;BME280;4062;49.844;8.120;2023-11-19T06:45:48;98928.34;;;15.32;58.15
8039;BME280;4062;49.844;8.120;2023-11-19T06:47:50;98924.81;;;15.32;58.16
8039;BME280;4062;49.844;8.120;2023-11-19T06:49:52;98927.41;;;15.34;57.92
8039;BME280;4062;49.844;8.120;2023-11-19T06:51:53;98923.00;;;15.32;57.97
8039;BME280;4062;49.844;8.120;2023-11-19T06:53:54;98915.88;;;15.33;57.99
8039;BME280;4062;49.844;8.120;2023-11-19T06:55:56;98918.53;;;15.33;58.15
8039;BME280;4062;49.844;8.120;2023-11-19T06:58:00;98916.84;;;15.32;57.97
8039;BME280;4062;49.844;8.120;2023-11-19T07:00:04;98923.00;;;15.32;58.12
8039;BME280;4062;49.844;8.120;2023-11-19T07:02:07;98923.00;;;15.32;57.91
8039;BME280;4062;49.844;8.120;2023-11-19T07:04:08;98913.22;;;15.33;57.95
8039;BME280;4062;49.844;8.120;2023-11-19T07:06:11;98907.03;;;15.32;58.10
8039;BME280;4062;49.844;8.120;2023-11-19T07:08:14;98913.22;;;15.33;57.92
8039;BME280;4062;49.844;8.120;2023-11-19T07:10:15;98911.50;;;15.32;57.96
8039;BME280;4062;49.844;8.120;2023-11-19T07:12:16;98911.50;;;15.32;58.14
8039;BME280;4062;49.844;8.120;2023-11-19T07:14:18;98912.38;;;15.32;57.90
8039;BME280;4062;49.844;8.120;2023-11-19T07:16:19;98912.38;;;15.32;57.93
8039;BME280;4062;49.844;8.120;2023-11-19T07:18:22;98907.03;;;15.32;58.05
8039;BME280;4062;49.844;8.120;2023-11-19T07:20:24;98908.84;;;15.32;58.10
8039;BME280;4062;49.844;8.120;2023-11-19T07:22:25;98916.75;;;15.34;58.10
8039;BME280;4062;49.844;8.120;2023-11-19T07:24:26;98923.00;;;15.32;58.10
8039;BME280;4062;49.844;8.120;2023-11-19T07:26:29;98923.84;;;15.33;57.93
8039;BME280;4062;49.844;8.120;2023-11-19T07:28:30;98922.16;;;15.32;58.04
8039;BME280;4062;49.844;8.120;2023-11-19T07:30:31;98923.84;;;15.33;58.02
8039;BME280;4062;49.844;8.120;2023-11-19T07:32:33;98915.03;;;15.32;58.07
8039;BME280;4062;49.844;8.120;2023-11-19T07:34:34;98922.06;;;15.34;58.02
8039;BME280;4062;49.844;8.120;2023-11-19T07:36:36;98916.75;;;15.34;57.98
8039;BME280;4062;49.844;8.120;2023-11-19T07:38:38;98914.09;;;15.34;57.99
8039;BME280;4062;49.844;8.120;2023-11-19T07:40:39;98927.41;;;15.34;57.97
8039;BME280;4062;49.844;8.120;2023-11-19T07:42:40;98930.06;;;15.34;57.91
8039;BME280;4062;49.844;8.120;2023-11-19T07:44:43;98933.66;;;15.32;57.89
8039;BME280;4062;49.844;8.120;2023-11-19T07:46:44;98939.81;;;15.33;57.98
8039;BME280;4062;49.844;8.120;2023-11-19T07:48:46;98939.81;;;15.33;58.08
8039;BME280;4062;49.844;8.120;2023-11-19T07:50:48;98953.13;;;15.33;58.04
8039;BME280;4062;49.844;8.120;2023-11-19T07:52:51;98951.34;;;15.34;57.93
8039;BME280;4062;49.844;8.120;2023-11-19T07:54:52;98956.66;;;15.34;58.12
8039;BME280;4062;49.844;8.120;2023-11-19T07:56:53;98950.47;;;15.33;57.95
8039;BME280;4062;49.844;8.120;2023-11-19T07:58:55;98950.47;;;15.33;58.13
8039;BME280;4062;49.844;8.120;2023-11-19T08:00:56;98952.28;;;15.32;58.11
8039;BME280;4062;49.844;8.120;2023-11-19T08:02:57;98961.13;;;15.33;57.96
8039;BME280;4062;49.844;8.120;2023-11-19T08:04:59;98966.44;;;15.33;57.92
8039;BME280;4062;49.844;8.120;2023-11-19T08:07:00;98977.03;;;15.35;58.02
8039;BME280;4062;49.844;8.120;2023-11-19T08:09:01;98969.09;;;15.33;58.16
8039;BME280;4062;49.844;8.120;2023-11-19T08:11:03;98965.50;;;15.34;58.02
8039;BME280;4062;49.844;8.120;2023-11-19T08:13:06;98966.44;;;15.33;57.96
8039;BME280;4062;49.844;8.120;2023-11-19T08:15:08;98962.00;;;15.34;58.17
8039;BME280;4062;49.844;8.120;2023-11-19T08:17:10;98964.66;;;15.34;58.19
8039;BME280;4062;49.844;8.120;2023-11-19T08:19:11;98961.13;;;15.33;57.93
8039;BME280;4062;49.844;8.120;2023-11-19T08:21:14;98964.66;;;15.34;58.10
8039;BME280;4062;49.844;8.120;2023-11-19T08:23:16;98969.97;;;15.34;58.10
8039;BME280;4062;49.844;8.120;2023-11-19T08:25:17;98967.31;;;15.34;58.04
8039;BME280;4062;49.844;8.120;2023-11-19T08:27:19;98966.44;;;15.33;58.00
8039;BME280;4062;49.844;8.120;2023-11-19T08:29:27;98971.75;;;15.33;58.05
8039;BME280;4062;49.844;8.120;2023-11-19T08:31:29;98971.75;;;15.33;58.09
8039;BME280;4062;49.844;8.120;2023-11-19T08:33:30;98974.44;;;15.33;58.06
8039;BME280;4062;49.844;8.120;2023-11-19T08:35:32;98985.06;;;15.33;58.10
8039;BME280;4062;49.844;8.120;2023-11-19T08:37:34;98975.38;;;15.32;58.14
8039;BME280;4062;49.844;8.120;2023-11-19T08:39:37;98985.94;;;15.34;58.11
8039;BME280;4062;49.844;8.120;2023-11-19T08:41:39;98976.25;;;15.32;58.15
8039;BME280;4062;49.844;8.120;2023-11-19T08:43:41;98976.25;;;15.32;58.09
8039;BME280;4062;49.844;8.120;2023-11-19T08:45:42;98982.41;;;15.33;58.00
8039;BME280;4062;49.844;8.120;2023-11-19T08:47:44;98996.59;;;15.34;57.99
8039;BME280;4062;49.844;8.120;2023-11-19T08:49:46;98998.31;;;15.35;57.96
8039;BME280;4062;49.844;8.120;2023-11-19T08:51:47;99005.44;;;15.34;57.97
8039;BME280;4062;49.844;8.120;2023-11-19T08:53:48;98997.53;;;15.32;58.10
8039;BME280;4062;49.844;8.120;2023-11-19T08:55:50;99000.09;;;15.34;57.91
8039;BME280;4062;49.844;8.120;2023-11-19T08:57:51;99001.94;;;15.34;58.02
8039;BME280;4062;49.844;8.120;2023-11-19T08:59:52;98999.25;;;15.34;57.99
8039;BME280;4062;49.844;8.120;2023-11-19T09:01:54;98993.94;;;15.34;57.92
8039;BME280;4062;49.844;8.120;2023-11-19T09:03:55;98999.25;;;15.34;58.03
8039;BME280;4062;49.844;8.120;2023-11-19T09:05:56;98977.97;;;15.34;57.99
8039;BME280;4062;49.844;8.120;2023-11-19T09:07:58;98993.06;;;15.33;57.98
8039;BME280;4062;49.844;8.120;2023-11-19T09:09:59;98991.28;;;15.34;57.99
8039;BME280;4062;49.844;8.120;2023-11-19T09:12:00;98993.06;;;15.33;58.09
8039;BME280;4062;49.844;8.120;2023-11-19T09:14:01;99001.94;;;15.34;58.13
8039;BME280;4062;49.844;8.120;2023-11-19T09:16:03;98988.63;;;15.34;57.96
8039;BME280;4062;49.844;8.120;2023-11-19T09:18:05;98992.13;;;15.34;58.15
8039;BME280;4062;49.844;8.120;2023-11-19T09:20:07;98996.59;;;15.34;58.13
8039;BME280;4062;49.844;8.120;2023-11-19T09:22:09;99000.09;;;15.34;58.04
8039;BME280;4062;49.844;8.120;2023-11-19T09:24:10;99004.59;;;15.34;58.06
8039;BME280;4062;49.844;8.120;2023-11-19T09:26:11;99004.59;;;15.34;58.02
8039;BME280;4062;49.844;8.120;2023-11-19T09:28:13;99003.72;;;15.33;58.03
8039;BME280;4062;49.844;8.120;2023-11-19T09:30:15;99012.56;;;15.34;58.00
8039;BME280;4062;49.844;8.120;2023-11-19T09:32:16;99020.56;;;15.34;58.15
8039;BME280;4062;49.844;8.120;2023-11-19T09:34:18;99015.22;;;15.34;58.05
8039;BME280;4062;49.844;8.120;2023-11-19T09:36:19;99016.06;;;15.34;58.01
8039;BME280;4062;49.844;8.120;2023-11-19T09:38:20;99015.22;;;15.34;58.13
8039;BME280;4062;49.844;8.120;2023-11-19T09:40:22;99021.50;;;15.32;58.12
8039;BME280;4062;49.844;8.120;2023-11-19T09:42:24;99017.91;;;15.34;58.08
8039;BME280;4062;49.844;8.120;2023-11-19T09:44:26;99021.41;;;15.34;58.16
8039;BME280;4062;49.844;8.120;2023-11-19T09:46:29;99021.41;;;15.34;58.14
8039;BME280;4062;49.844;8.120;2023-11-19T09:48:32;99026.72;;;15.34;58.14
8039;BME280;4062;49.844;8.120;2023-11-19T09:50:33;99025.88;;;15.34;58.08
8039;BME280;4062;49.844;8.120;2023-11-19T09:52:35;99023.22;;;15.34;58.11
8039;BME280;4062;49.844;8.120;2023-11-19T09:54:36;99023.22;;;15.34;58.10
8039;BME280;4062;49.844;8.120;2023-11-19T09:56:38;99026.72;;;15.34;58.10
8039;BME280;4062;49.844;8.120;2023-11-19T09:58:40;99018.75;;;15.34;58.08
8039;BME280;4062;49.844;8.120;2023-11-19T10:00:41;99018.75;;;15.34;57.99
8039;BME280;4062;49.844;8.120;2023-11-19T10:02:43;99016.06;;;15.34;58.19
8039;BME280;4062;49.844;8.120;2023-11-19T10:04:47;99024.06;;;15.34;58.14
8039;BME280;4062;49.844;8.120;2023-11-19T10:06:53;99023.22;;;15.34;58.00
8039;BME280;4062;49.844;8.120;2023-11-19T10:08:54;99015.22;;;15.34;57.96
8039;BME280;4062;49.844;8.120;2023-11-19T10:10:56;99020.56;;;15.34;57.96
8039;BME280;4062;49.844;8.120;2023-11-19T10:12:58;99011.63;;;15.35;58.11
8039;BME280;4062;49.844;8.120;2023-11-19T10:15:01;99009.91;;;15.34;58.03
8039;BME280;4062;49.844;8.120;2023-11-19T10:17:07;99015.22;;;15.34;58.16
8039;BME280;4062;49.844;8.120;2023-11-19T10:19:08;99022.28;;;15.35;58.11
8039;BME280;4062;49.844;8.120;2023-11-19T10:21:14;99002.78;;;15.34;58.05
8039;BME280;4062;49.844;8.120;2023-11-19T10:23:18;99010.75;;;15.34;58.02
8039;BME280;4062;49.844;8.120;2023-11-19T10:25:24;99000.09;;;15.34;58.09
8039;BME280;4062;49.844;8.120;2023-11-19T10:27:26;98997.44;;;15.34;57.99
8039;BME280;4062;49.844;8.120;2023-11-19T10:29:29;98992.13;;;15.34;58.14
8039;BME280;4062;49.844;8.120;2023-11-19T10:31:31;98993.06;;;15.33;57.95
8039;BME280;4062;49.844;8.120;2023-11-19T10:33:32;98992.22;;;15.32;58.11
8039;BME280;4062;49.844;8.120;2023-11-19T10:35:56;98988.63;;;15.34;58.06
8039;BME280;4062;49.844;8.120;2023-11-19T10:38:00;98988.63;;;15.34;58.02
8039;BME280;4062;49.844;8.120;2023-11-19T10:40:01;98982.41;;;15.33;58.11
8039;BME280;4062;49.844;8.120;2023-11-19T10:42:15;98983.28;;;15.34;58.02
8039;BME280;4062;49.844;8.120;2023-11-19T10:44:35;98988.63;;;15.34;58.08
8039;BME280;4062;49.844;8.120;2023-11-19T10:46:41;98986.81;;;15.34;58.07
8039;BME280;4062;49.844;8.120;2023-11-19T10:48:43;98988.63;;;15.34;58.00
8039;BME280;4062;49.844;8.120;2023-11-19T10:50:46;98984.13;;;15.34;57.92
8039;BME280;4062;49.844;8.120;2023-11-19T10:52:55;98993.00;;;15.35;58.05
8039;BME280;4062;49.844;8.120;2023-11-19T10:55:00;98978.81;;;15.34;57.97
8039;BME280;4062;49.844;8.120;2023-11-19T10:57:02;98972.66;;;15.34;58.12
8039;BME280;4062;49.844;8.120;2023-11-19T10:59:06;98970.81;;;15.34;58.04
8039;BME280;4062;49.844;8.120;2023-11-19T11:01:44;98971.72;;;15.35;58.03
8039;BME280;4062;49.844;8.120;2023-11-19T11:03:46;98976.16;;;15.34;58.05
8039;BME280;4062;49.844;8.120;2023-11-19T11:05:49;98969.03;;;15.35;57.91